Time;durP1;ratioP1;P1;durP2;ratioP2;P2;SDS_P1;SDS_P2;PMS_P1;PMS_P2;Temp;Humidity;BMP_temperature;BMP_pressure;BME280_temperature;BME280_humidity;BME280_pressure;Samples;Min_cycle;Max_cycle;Signal;HPM_P1;HPM_P2
2024/04/15 00:01:53;;;;;;;;;;;;;;;16.34;100.00;97516.94;5430474;26;20002;-52
2024/04/15 00:04:18;;;;;;;;;;;;;;;16.17;100.00;97520.19;5425333;26;20020;-52
2024/04/15 00:06:43;;;;;;;;;;;;;;;16.01;100.00;97513.75;5428579;26;20070;-51
2024/04/15 00:09:09;;;;;;;;;;;;;;;15.90;100.00;97514.69;5435174;26;19974;-52
2024/04/15 00:11:34;;;;;;;;;;;;;;;16.02;100.00;97505.75;5430049;26;20055;-53
2024/04/15 00:13:59;;;;;;;;;;;;;;;16.04;100.00;97516.13;5440954;26;19992;-52
2024/04/15 00:16:24;;;;;;;;;;;;;;;16.03;100.00;97511.84;5442738;26;19960;-51
2024/04/15 00:18:50;;;;;;;;;;;;;;;16.06;100.00;97506.31;5434687;26;19964;-52
2024/04/15 00:21:15;;;;;;;;;;;;;;;16.22;100.00;97501.44;5437774;26;19992;-51
2024/04/15 00:23:40;;;;;;;;;;;;;;;16.08;100.00;97512.25;5430430;26;19939;-53
2024/04/15 00:26:05;;;;;;;;;;;;;;;16.20;100.00;97516.47;5428466;26;19964;-51
2024/04/15 00:28:30;;;;;;;;;;;;;;;16.07;100.00;97515.84;5431694;26;19965;-51
2024/04/15 00:30:56;;;;;;;;;;;;;;;16.05;100.00;97515.16;5442605;26;19928;-53
2024/04/15 00:33:21;;;;;;;;;;;;;;;16.37;100.00;97523.72;5440601;26;20001;-52
2024/04/15 00:35:47;;;;;;;;;;;;;;;16.48;100.00;97523.63;5441061;26;19993;-52
2024/04/15 00:38:12;;;;;;;;;;;;;;;16.52;100.00;97498.78;5429663;26;19970;-51
2024/04/15 00:40:38;;;;;;;;;;;;;;;16.53;100.00;97495.19;5443261;26;19972;-51
2024/04/15 00:43:03;;;;;;;;;;;;;;;16.87;100.00;97510.47;5437329;26;19970;-51
2024/04/15 00:45:30;;;;;;;;;;;;;;;17.17;100.00;97500.63;5444388;26;19962;-51
2024/04/15 00:47:57;;;;;;;;;;;;;;;17.37;96.37;97486.53;5442650;26;19973;-53
2024/04/15 00:50:23;;;;;;;;;;;;;;;17.59;93.19;97473.06;5446344;26;20313;-52
2024/04/15 00:52:48;;;;;;;;;;;;;;;17.65;91.28;97475.13;5442766;26;19962;-53
2024/04/15 00:55:14;;;;;;;;;;;;;;;17.52;92.07;97468.53;5447963;26;19967;-50
2024/04/15 00:57:43;;;;;;;;;;;;;;;17.61;92.06;97470.28;5435673;26;20085;-50
2024/04/15 01:00:09;;;;;;;;;;;;;;;17.53;92.33;97471.00;5439445;26;19981;-50
2024/04/15 01:02:34;;;;;;;;;;;;;;;17.55;93.82;97484.84;5442422;26;19957;-51
2024/04/15 01:05:00;;;;;;;;;;;;;;;17.62;92.73;97477.22;5439520;26;20398;-49
2024/04/15 01:07:25;;;;;;;;;;;;;;;17.54;93.86;97485.00;5435173;26;20383;-50
2024/04/15 01:09:51;;;;;;;;;;;;;;;17.50;94.98;97473.91;5439495;26;20325;-51
2024/04/15 01:12:16;;;;;;;;;;;;;;;17.61;93.04;97462.41;5434492;26;19960;-50
2024/04/15 01:14:41;;;;;;;;;;;;;;;17.75;91.63;97464.56;5433125;26;20239;-50
2024/04/15 01:17:07;;;;;;;;;;;;;;;17.59;91.96;97462.53;5438464;26;20048;-51
2024/04/15 01:19:32;;;;;;;;;;;;;;;17.56;92.45;97456.72;5437100;26;19998;-51
2024/04/15 01:21:57;;;;;;;;;;;;;;;17.58;91.65;97452.16;5440515;26;19966;-50
2024/04/15 01:24:22;;;;;;;;;;;;;;;17.78;88.40;97457.22;5435545;26;19974;-53
2024/04/15 01:26:48;;;;;;;;;;;;;;;17.68;87.18;97461.69;5429302;26;19962;-52
2024/04/15 01:29:13;;;;;;;;;;;;;;;17.72;85.80;97457.78;5431996;26;19983;-52
2024/04/15 01:31:38;;;;;;;;;;;;;;;17.65;86.58;97446.16;5440396;26;19928;-51
2024/04/15 01:34:03;;;;;;;;;;;;;;;17.62;88.76;97440.34;5433706;26;19937;-52
2024/04/15 01:36:29;;;;;;;;;;;;;;;17.69;87.72;97426.50;5436237;26;20388;-52
2024/04/15 01:38:54;;;;;;;;;;;;;;;17.59;88.17;97430.94;5439036;26;19928;-51
2024/04/15 01:41:19;;;;;;;;;;;;;;;17.51;89.10;97436.09;5439298;26;19936;-53
2024/04/15 01:43:44;;;;;;;;;;;;;;;17.62;88.27;97441.19;5443234;26;19986;-53
2024/04/15 01:46:09;;;;;;;;;;;;;;;17.50;87.73;97439.72;5433537;26;19999;-51
2024/04/15 01:48:35;;;;;;;;;;;;;;;17.59;87.43;97430.94;5431778;26;19944;-51
2024/04/15 01:51:00;;;;;;;;;;;;;;;17.50;87.92;97442.34;5449506;26;20253;-50
2024/04/15 01:53:25;;;;;;;;;;;;;;;17.49;87.26;97440.69;5437822;26;20315;-50
2024/04/15 01:55:50;;;;;;;;;;;;;;;17.43;88.62;97446.50;5437251;26;19996;-50
2024/04/15 01:58:16;;;;;;;;;;;;;;;17.36;88.04;97450.66;5439202;26;20304;-51
2024/04/15 02:00:41;;;;;;;;;;;;;;;17.47;87.52;97447.91;5440973;26;20094;-51
2024/04/15 02:03:06;;;;;;;;;;;;;;;17.54;85.74;97446.34;5434140;26;19942;-51
2024/04/15 02:05:31;;;;;;;;;;;;;;;17.44;86.73;97445.53;5443077;26;19929;-52
2024/04/15 02:07:57;;;;;;;;;;;;;;;17.30;87.19;97440.69;5435685;26;19929;-51
2024/04/15 02:10:22;;;;;;;;;;;;;;;17.42;86.57;97438.75;5441532;26;19962;-50
2024/04/15 02:12:47;;;;;;;;;;;;;;;17.18;88.00;97439.19;5439803;26;20347;-51
2024/04/15 02:15:12;;;;;;;;;;;;;;;17.06;89.59;97431.59;5437612;26;19963;-51
2024/04/15 02:17:38;;;;;;;;;;;;;;;17.02;90.63;97436.31;5436907;26;19971;-50
2024/04/15 02:20:03;;;;;;;;;;;;;;;17.08;89.93;97433.13;5432887;26;19929;-51
2024/04/15 02:22:28;;;;;;;;;;;;;;;17.18;88.65;97439.19;5436053;26;19937;-52
2024/04/15 02:24:53;;;;;;;;;;;;;;;17.00;88.07;97438.22;5437750;26;20013;-50
2024/04/15 02:27:19;;;;;;;;;;;;;;;17.06;87.70;97432.41;5435045;26;19936;-51
2024/04/15 02:29:44;;;;;;;;;;;;;;;17.11;88.91;97438.06;5444886;26;19934;-52
2024/04/15 02:32:09;;;;;;;;;;;;;;;17.08;89.29;97439.34;5436688;26;19983;-50
2024/04/15 02:34:34;;;;;;;;;;;;;;;17.11;88.68;97435.44;5437109;26;19971;-50
2024/04/15 02:37:00;;;;;;;;;;;;;;;17.16;85.80;97438.50;5446077;26;20410;-52
2024/04/15 02:39:25;;;;;;;;;;;;;;;17.23;83.67;97431.69;5441370;26;19929;-51
2024/04/15 02:41:50;;;;;;;;;;;;;;;17.17;82.39;97434.88;5434539;26;19967;-50
2024/04/15 02:44:16;;;;;;;;;;;;;;;17.15;81.15;97431.59;5432551;26;19968;-51
2024/04/15 02:46:41;;;;;;;;;;;;;;;17.13;80.87;97419.53;5436361;26;19965;-52
2024/04/15 02:49:06;;;;;;;;;;;;;;;17.20;80.44;97428.53;5427557;26;19990;-50
2024/04/15 02:51:34;;;;;;;;;;;;;;;17.21;81.13;97412.59;5443199;26;19933;-50
2024/04/15 02:53:59;;;;;;;;;;;;;;;17.20;80.53;97408.28;5440193;26;20397;-52
2024/04/15 02:56:24;;;;;;;;;;;;;;;17.21;80.48;97404.72;5429335;26;19965;-53
2024/04/15 02:58:50;;;;;;;;;;;;;;;17.20;79.89;97396.97;5443476;26;20323;-51
2024/04/15 03:01:15;;;;;;;;;;;;;;;17.13;79.35;97401.94;5440698;26;19935;-52
2024/04/15 03:03:40;;;;;;;;;;;;;;;17.16;79.53;97401.69;5439359;26;19987;-51
2024/04/15 03:06:05;;;;;;;;;;;;;;;16.92;81.28;97392.59;5439398;26;20279;-51
2024/04/15 03:08:31;;;;;;;;;;;;;;;16.97;81.30;97400.03;5434309;26;20320;-52
2024/04/15 03:10:56;;;;;;;;;;;;;;;16.92;82.58;97404.88;5434655;26;19929;-50
2024/04/15 03:13:21;;;;;;;;;;;;;;;16.68;84.21;97404.50;5439317;26;20056;-50
2024/04/15 03:15:55;;;;;;;;;;;;;;;16.63;85.67;97397.00;5441517;26;20010;-52
2024/04/15 03:18:21;;;;;;;;;;;;;;;16.72;85.69;97390.09;5434239;26;19972;-51
2024/04/15 03:20:46;;;;;;;;;;;;;;;16.76;86.37;97386.22;5440816;26;19968;-50
2024/04/15 03:23:11;;;;;;;;;;;;;;;16.51;88.44;97392.88;5432817;26;19985;-51
2024/04/15 03:25:36;;;;;;;;;;;;;;;16.46;89.75;97404.75;5443212;26;19936;-51
2024/04/15 03:28:01;;;;;;;;;;;;;;;16.41;90.52;97406.94;5436847;26;19953;-52
2024/04/15 03:30:27;;;;;;;;;;;;;;;16.52;91.09;97401.56;5438524;26;19986;-52
2024/04/15 03:32:52;;;;;;;;;;;;;;;16.69;90.22;97411.41;5438771;26;19986;-51
2024/04/15 03:35:17;;;;;;;;;;;;;;;16.43;91.36;97405.03;5433076;26;20032;-52
2024/04/15 03:37:42;;;;;;;;;;;;;;;16.41;90.79;97405.16;5440959;26;19967;-51
2024/04/15 03:40:08;;;;;;;;;;;;;;;16.22;92.21;97386.69;5434101;26;19963;-53
2024/04/15 03:42:33;;;;;;;;;;;;;;;16.24;92.63;97362.94;5440571;26;19965;-52
2024/04/15 03:44:58;;;;;;;;;;;;;;;16.31;92.52;97354.38;5440086;26;19994;-52
2024/04/15 03:47:24;;;;;;;;;;;;;;;16.28;93.18;97359.06;5441704;26;20039;-53
2024/04/15 03:49:49;;;;;;;;;;;;;;;16.30;93.33;97350.06;5434753;26;19929;-51
2024/04/15 03:52:14;;;;;;;;;;;;;;;16.31;93.67;97345.66;5439637;26;19977;-51
2024/04/15 03:54:39;;;;;;;;;;;;;;;16.38;93.49;97338.94;5439470;26;19940;-49
2024/04/15 03:57:05;;;;;;;;;;;;;;;16.33;95.96;97325.34;5437457;26;20296;-51
2024/04/15 03:59:30;;;;;;;;;;;;;;;16.16;96.82;97339.16;5443622;26;19944;-51
2024/04/15 04:01:55;;;;;;;;;;;;;;;16.18;96.79;97350.34;5432352;26;19997;-50
2024/04/15 04:04:22;;;;;;;;;;;;;;;16.11;98.63;97357.13;5430155;26;20378;-51
2024/04/15 04:06:47;;;;;;;;;;;;;;;16.07;99.87;97332.09;5442638;26;20053;-50
2024/04/15 04:09:13;;;;;;;;;;;;;;;16.02;99.95;97336.94;5434350;26;19984;-50
2024/04/15 04:11:38;;;;;;;;;;;;;;;15.96;100.00;97347.97;5437659;26;19970;-51
2024/04/15 04:14:04;;;;;;;;;;;;;;;16.01;100.00;97345.75;5435391;26;19981;-50
2024/04/15 04:16:29;;;;;;;;;;;;;;;15.92;100.00;97338.69;5431090;26;19929;-50
2024/04/15 04:18:54;;;;;;;;;;;;;;;16.06;100.00;97352.28;5432037;26;19929;-50
2024/04/15 04:21:19;;;;;;;;;;;;;;;16.01;100.00;97361.50;5433718;26;19969;-50
2024/04/15 04:23:44;;;;;;;;;;;;;;;15.85;100.00;97366.44;5440382;26;19963;-52
2024/04/15 04:26:10;;;;;;;;;;;;;;;15.82;100.00;97359.66;5438494;26;19986;-53
2024/04/15 04:28:35;;;;;;;;;;;;;;;15.77;100.00;97359.22;5436134;26;19996;-51
2024/04/15 04:31:04;;;;;;;;;;;;;;;15.92;100.00;97365.78;5437059;26;19997;-52
2024/04/15 04:33:29;;;;;;;;;;;;;;;15.96;100.00;97358.47;5436799;26;20048;-52
2024/04/15 04:35:55;;;;;;;;;;;;;;;16.10;100.00;97365.97;5439229;26;20367;-53
2024/04/15 04:38:20;;;;;;;;;;;;;;;16.00;100.00;97370.34;5440489;26;19972;-49
2024/04/15 04:40:45;;;;;;;;;;;;;;;15.96;100.00;97364.53;5438933;26;20429;-52
2024/04/15 04:43:11;;;;;;;;;;;;;;;15.84;100.00;97370.03;5440180;26;19973;-49
2024/04/15 04:45:36;;;;;;;;;;;;;;;16.00;100.00;97362.47;5440559;26;20298;-49
2024/04/15 04:48:01;;;;;;;;;;;;;;;15.89;100.00;97373.09;5439175;26;20346;-50
2024/04/15 04:50:26;;;;;;;;;;;;;;;15.95;100.00;97369.94;5443505;26;20364;-53
2024/04/15 04:52:52;;;;;;;;;;;;;;;15.96;100.00;97371.59;5447494;26;20320;-50
2024/04/15 04:55:17;;;;;;;;;;;;;;;15.91;100.00;97371.16;5446370;26;19929;-49
2024/04/15 04:57:42;;;;;;;;;;;;;;;15.77;100.00;97369.72;5443493;26;19966;-50
2024/04/15 05:00:08;;;;;;;;;;;;;;;15.82;100.00;97362.28;5434748;26;19995;-51
2024/04/15 05:02:33;;;;;;;;;;;;;;;15.70;100.00;97373.84;5433633;26;19973;-52
2024/04/15 05:04:59;;;;;;;;;;;;;;;15.71;100.00;97379.94;5437549;26;19937;-51
2024/04/15 05:07:24;;;;;;;;;;;;;;;15.74;100.00;97371.78;5436983;26;20018;-52
2024/04/15 05:09:49;;;;;;;;;;;;;;;15.71;100.00;97369.44;5444467;26;19958;-52
2024/04/15 05:12:15;;;;;;;;;;;;;;;15.52;100.00;97380.69;5440456;26;19974;-51
2024/04/15 05:14:40;;;;;;;;;;;;;;;15.55;100.00;97380.44;5440358;26;20014;-52
2024/04/15 05:17:05;;;;;;;;;;;;;;;15.80;100.00;97379.13;5441392;26;20026;-52
2024/04/15 05:19:30;;;;;;;;;;;;;;;15.99;100.00;97373.94;5436134;26;20258;-51
2024/04/15 05:21:55;;;;;;;;;;;;;;;15.83;100.00;97381.50;5433711;26;20461;-51
2024/04/15 05:24:21;;;;;;;;;;;;;;;16.04;100.00;97387.50;5435897;26;20324;-49
2024/04/15 05:26:46;;;;;;;;;;;;;;;16.16;100.00;97368.06;5441093;26;20325;-51
2024/04/15 05:29:11;;;;;;;;;;;;;;;15.82;100.00;97374.59;5431496;26;19929;-50
2024/04/15 05:31:37;;;;;;;;;;;;;;;15.89;100.00;97381.78;5435639;26;19982;-52
2024/04/15 05:34:02;;;;;;;;;;;;;;;15.98;100.00;97388.03;5428857;26;19936;-50
2024/04/15 05:36:28;;;;;;;;;;;;;;;16.13;97.31;97397.19;5446066;26;20247;-50
2024/04/15 05:38:54;;;;;;;;;;;;;;;15.95;97.80;97394.38;5444539;26;20259;-51
2024/04/15 05:41:20;;;;;;;;;;;;;;;15.99;95.65;97384.44;5440730;26;19948;-50
2024/04/15 05:43:45;;;;;;;;;;;;;;;16.04;94.87;97387.50;5447528;26;19985;-51
2024/04/15 05:46:11;;;;;;;;;;;;;;;16.03;94.51;97391.09;5442130;26;19929;-51
2024/04/15 05:48:36;;;;;;;;;;;;;;;15.94;95.25;97384.00;5439872;26;19935;-52
2024/04/15 05:51:01;;;;;;;;;;;;;;;16.05;94.60;97391.78;5437225;26;19983;-52
2024/04/15 05:53:26;;;;;;;;;;;;;;;16.04;93.79;97384.88;5444541;26;20421;-51
2024/04/15 05:55:52;;;;;;;;;;;;;;;16.10;91.65;97381.72;5444292;26;19958;-50
2024/04/15 05:58:17;;;;;;;;;;;;;;;16.09;90.96;97387.94;5441183;26;19967;-50
2024/04/15 06:00:42;;;;;;;;;;;;;;;15.99;90.50;97389.69;5443289;26;19978;-50
2024/04/15 06:03:07;;;;;;;;;;;;;;;16.02;89.48;97381.56;5447319;26;19978;-50
2024/04/15 06:05:32;;;;;;;;;;;;;;;16.08;88.62;97388.88;5440119;26;20021;-53
2024/04/15 06:07:58;;;;;;;;;;;;;;;16.14;89.58;97388.34;5431880;26;20351;-50
2024/04/15 06:10:24;;;;;;;;;;;;;;;16.10;87.82;97382.53;5429497;26;19999;-51
2024/04/15 06:12:49;;;;;;;;;;;;;;;16.08;86.76;97388.88;5442508;26;19932;-51
2024/04/15 06:15:14;;;;;;;;;;;;;;;16.03;84.82;97396.34;5440877;26;19940;-50
2024/04/15 06:17:40;;;;;;;;;;;;;;;16.06;81.60;97401.31;5453057;26;19972;-52
2024/04/15 06:20:05;;;;;;;;;;;;;;;16.05;79.79;97404.91;5426743;26;19976;-51
2024/04/15 06:22:31;;;;;;;;;;;;;;;16.05;79.34;97410.16;5438720;26;20266;-51
2024/04/15 06:24:56;;;;;;;;;;;;;;;15.94;80.18;97399.75;5430721;26;19929;-50
2024/04/15 06:27:21;;;;;;;;;;;;;;;15.86;80.35;97404.84;5445435;26;19986;-50
2024/04/15 06:29:47;;;;;;;;;;;;;;;15.87;79.82;97403.88;5433413;26;19929;-51
2024/04/15 06:32:13;;;;;;;;;;;;;;;15.84;80.20;97412.84;5434963;26;19989;-51
2024/04/15 06:34:38;;;;;;;;;;;;;;;16.06;79.70;97401.31;5439054;26;19957;-51
2024/04/15 06:37:03;;;;;;;;;;;;;;;16.05;79.21;97389.16;5438235;26;19936;-51
2024/04/15 06:39:28;;;;;;;;;;;;;;;15.76;80.43;97394.31;5440875;26;19943;-50
2024/04/15 06:41:53;;;;;;;;;;;;;;;15.89;81.92;97396.72;5436590;26;20256;-49
2024/04/15 06:44:19;;;;;;;;;;;;;;;15.89;81.76;97399.34;5430736;26;19994;-51
2024/04/15 06:46:44;;;;;;;;;;;;;;;16.02;82.43;97390.25;5442325;26;19929;-53
2024/04/15 06:49:09;;;;;;;;;;;;;;;15.98;82.47;97388.03;5440871;26;19976;-50
2024/04/15 06:51:37;;;;;;;;;;;;;;;15.89;82.92;97388.84;5447211;26;19935;-51
2024/04/15 06:54:03;;;;;;;;;;;;;;;15.88;85.36;97397.66;5441653;26;20051;-51
2024/04/15 06:56:28;;;;;;;;;;;;;;;15.96;85.18;97395.22;5434076;26;19983;-51
2024/04/15 06:58:53;;;;;;;;;;;;;;;16.09;84.87;97394.00;5439298;26;19928;-51
2024/04/15 07:01:18;;;;;;;;;;;;;;;16.06;84.20;97391.66;5436274;26;19970;-53
2024/04/15 07:03:44;;;;;;;;;;;;;;;15.82;85.57;97391.16;5443172;26;19970;-54
2024/04/15 07:06:09;;;;;;;;;;;;;;;15.83;85.04;97389.38;5432492;26;19929;-52
2024/04/15 07:08:34;;;;;;;;;;;;;;;15.74;87.00;97385.75;5439646;26;19964;-52
2024/04/15 07:10:59;;;;;;;;;;;;;;;15.60;86.70;97388.75;5438813;26;20020;-52
2024/04/15 07:13:24;;;;;;;;;;;;;;;15.68;84.18;97388.91;5439553;26;20283;-50
2024/04/15 07:15:50;;;;;;;;;;;;;;;15.73;83.92;97388.50;5440016;26;19978;-52
2024/04/15 07:18:15;;;;;;;;;;;;;;;15.76;84.47;97393.50;5444423;26;19936;-52
2024/04/15 07:20:40;;;;;;;;;;;;;;;15.91;84.15;97398.22;5454252;26;19949;-52
2024/04/15 07:23:05;;;;;;;;;;;;;;;15.79;83.86;97387.97;5427500;26;19944;-50
2024/04/15 07:25:31;;;;;;;;;;;;;;;15.74;84.04;97405.91;5439520;26;19938;-50
2024/04/15 07:27:56;;;;;;;;;;;;;;;15.88;82.52;97398.50;5438755;26;19932;-51
2024/04/15 07:30:23;;;;;;;;;;;;;;;15.66;83.33;97409.19;5426319;26;20362;-51
2024/04/15 07:32:48;;;;;;;;;;;;;;;15.73;81.08;97409.50;5441663;26;19964;-51
2024/04/15 07:35:15;;;;;;;;;;;;;;;15.77;82.40;97410.91;5440067;26;19964;-51
2024/04/15 07:37:40;;;;;;;;;;;;;;;15.68;81.90;97409.03;5426875;26;19936;-51
2024/04/15 07:40:06;;;;;;;;;;;;;;;15.68;83.32;97416.91;5451234;26;19977;-51
2024/04/15 07:42:32;;;;;;;;;;;;;;;15.71;82.91;97409.63;5438947;26;19974;-51
2024/04/15 07:44:57;;;;;;;;;;;;;;;15.79;82.77;97408.97;5441365;26;20050;-51
2024/04/15 07:47:22;;;;;;;;;;;;;;;15.84;83.22;97417.28;5448523;26;19964;-51
2024/04/15 07:49:47;;;;;;;;;;;;;;;15.90;82.39;97411.50;5440074;26;19984;-51
2024/04/15 07:52:12;;;;;;;;;;;;;;;15.83;82.71;97403.31;5439765;26;19995;-51
2024/04/15 07:54:38;;;;;;;;;;;;;;;16.05;81.19;97389.16;5447537;26;19936;-50
2024/04/15 07:57:03;;;;;;;;;;;;;;;16.06;81.20;97385.56;5441553;26;20006;-52
2024/04/15 07:59:28;;;;;;;;;;;;;;;16.18;80.12;97395.00;5447728;26;19928;-52
2024/04/15 08:01:54;;;;;;;;;;;;;;;16.12;78.69;97382.41;5429002;26;19963;-51
2024/04/15 08:04:19;;;;;;;;;;;;;;;16.11;77.54;97378.13;5441656;26;19967;-51
2024/04/15 08:06:44;;;;;;;;;;;;;;;16.27;76.96;97379.25;5440020;26;20338;-51
2024/04/15 08:09:09;;;;;;;;;;;;;;;16.12;77.62;97385.03;5441671;26;20274;-52
2024/04/15 08:11:35;;;;;;;;;;;;;;;15.99;77.38;97385.28;5450403;26;20235;-51
2024/04/15 08:14:00;;;;;;;;;;;;;;;16.16;77.96;97378.56;5437312;26;19928;-51
2024/04/15 08:16:25;;;;;;;;;;;;;;;16.24;77.39;97378.69;5442303;26;19973;-53
2024/04/15 08:18:51;;;;;;;;;;;;;;;16.22;77.25;97380.63;5447195;26;19971;-51
2024/04/15 08:21:16;;;;;;;;;;;;;;;16.19;78.27;97362.50;5429635;26;19987;-51
2024/04/15 08:23:42;;;;;;;;;;;;;;;16.29;78.26;97361.56;5451493;26;19970;-52
2024/04/15 08:26:08;;;;;;;;;;;;;;;16.29;77.97;97381.75;5428231;26;19963;-53
2024/04/15 08:28:34;;;;;;;;;;;;;;;16.18;78.01;97369.56;5435090;26;19967;-52
2024/04/15 08:30:59;;;;;;;;;;;;;;;16.24;78.54;97374.25;5439822;26;19970;-53
2024/04/15 08:33:25;;;;;;;;;;;;;;;16.24;78.37;97363.75;5444724;26;20049;-52
2024/04/15 08:35:50;;;;;;;;;;;;;;;16.50;78.15;97361.47;5442469;26;19996;-53
2024/04/15 08:38:15;;;;;;;;;;;;;;;16.69;78.58;97361.47;5442204;26;19993;-53
2024/04/15 08:40:54;;;;;;;;;;;;;;;16.61;78.13;97343.75;5451529;26;19942;-54
2024/04/15 08:43:23;;;;;;;;;;;;;;;16.56;78.50;97348.59;5440241;26;20053;-51
2024/04/15 08:45:52;;;;;;;;;;;;;;;16.66;78.23;97330.19;5441713;26;20336;-51
2024/04/15 08:48:19;;;;;;;;;;;;;;;16.99;79.05;97320.88;5432124;26;19929;-52
2024/04/15 08:50:45;;;;;;;;;;;;;;;16.94;78.33;97319.66;5436331;26;19998;-52
2024/04/15 08:53:11;;;;;;;;;;;;;;;16.88;81.10;97317.59;5444351;26;19967;-49
2024/04/15 08:55:37;;;;;;;;;;;;;;;17.08;81.36;97325.28;5446448;26;20298;-52
2024/04/15 08:58:02;;;;;;;;;;;;;;;17.19;78.00;97314.59;5438192;26;19936;-51
2024/04/15 09:00:27;;;;;;;;;;;;;;;17.04;80.26;97305.50;5442570;26;19984;-53
2024/04/15 09:02:53;;;;;;;;;;;;;;;17.35;79.55;97291.16;5446203;26;19967;-52
2024/04/15 09:05:18;;;;;;;;;;;;;;;17.16;78.03;97295.63;5448608;26;19928;-51
2024/04/15 09:07:47;;;;;;;;;;;;;;;17.35;78.45;97285.88;5446393;26;19981;-51
2024/04/15 09:10:13;;;;;;;;;;;;;;;17.45;77.05;97291.13;5443067;26;20048;-52
2024/04/15 09:12:39;;;;;;;;;;;;;;;17.94;75.98;97296.81;5442378;26;20221;-49
2024/04/15 09:15:04;;;;;;;;;;;;;;;17.88;74.72;97297.41;5445717;26;19994;-51
2024/04/15 09:17:30;;;;;;;;;;;;;;;18.51;73.86;97277.94;5454942;26;20031;-50
2024/04/15 09:19:56;;;;;;;;;;;;;;;19.33;70.24;97287.09;5442910;26;19967;-50
2024/04/15 09:22:27;;;;;;;;;;;;;;;19.36;69.35;97297.34;5440546;26;19971;-51
2024/04/15 09:24:53;;;;;;;;;;;;;;;19.54;67.90;97286.69;5448470;26;19972;-52
2024/04/15 09:27:21;;;;;;;;;;;;;;;18.86;69.83;97288.41;5451389;26;20009;-50
2024/04/15 09:29:47;;;;;;;;;;;;;;;18.33;72.08;97292.94;5444116;26;19974;-50
2024/04/15 09:32:13;;;;;;;;;;;;;;;19.10;70.99;97285.94;5444066;26;19965;-50
2024/04/15 09:34:38;;;;;;;;;;;;;;;19.15;70.16;97281.03;5444975;26;20054;-51
2024/04/15 09:37:03;;;;;;;;;;;;;;;18.33;71.89;97287.66;5441214;26;19935;-50
2024/04/15 09:39:31;;;;;;;;;;;;;;;18.05;73.93;97280.78;5449381;26;19980;-51
2024/04/15 09:41:58;;;;;;;;;;;;;;;17.61;75.53;97289.53;5440731;26;20342;-52
2024/04/15 09:44:24;;;;;;;;;;;;;;;18.31;74.49;97284.34;5436297;26;19967;-51
2024/04/15 09:46:51;;;;;;;;;;;;;;;18.40;72.74;97272.94;5443408;26;19978;-53
2024/04/15 09:49:17;;;;;;;;;;;;;;;17.97;73.36;97267.53;5442473;26;19995;-50
2024/04/15 09:51:44;;;;;;;;;;;;;;;17.91;74.40;97262.88;5443036;26;19977;-50
2024/04/15 09:54:10;;;;;;;;;;;;;;;17.65;74.20;97271.66;5441059;26;19935;-50
2024/04/15 09:56:47;;;;;;;;;;;;;;;17.56;75.82;97285.66;5452869;26;20009;-51
2024/04/15 09:59:13;;;;;;;;;;;;;;;17.66;75.79;97284.63;5443958;26;20281;-50
2024/04/15 10:01:39;;;;;;;;;;;;;;;17.75;75.97;97275.88;5440035;26;19998;-50
2024/04/15 10:04:13;;;;;;;;;;;;;;;17.94;76.62;97267.00;5447051;26;19969;-50
2024/04/15 10:06:40;;;;;;;;;;;;;;;17.35;78.22;97270.09;5441211;26;19980;-52
2024/04/15 10:09:06;;;;;;;;;;;;;;;17.42;77.39;97263.31;5445574;26;20091;-54
2024/04/15 10:11:32;;;;;;;;;;;;;;;17.02;78.53;97256.66;5432566;26;19974;-51
2024/04/15 10:13:58;;;;;;;;;;;;;;;16.95;79.20;97249.50;5447667;26;19993;-49
2024/04/15 10:16:23;;;;;;;;;;;;;;;17.00;79.92;97243.66;5437552;26;19936;-53
2024/04/15 10:18:58;;;;;;;;;;;;;;;17.29;79.51;97228.59;5438528;26;20007;-49
2024/04/15 10:21:24;;;;;;;;;;;;;;;17.83;77.21;97233.81;5437762;26;19972;-52
2024/04/15 10:23:49;;;;;;;;;;;;;;;18.11;77.46;97227.50;5439300;26;19992;-51
2024/04/15 10:26:15;;;;;;;;;;;;;;;17.83;77.67;97218.03;5438284;26;19936;-51
2024/04/15 10:28:40;;;;;;;;;;;;;;;18.00;75.83;97214.59;5433397;26;21875;-52
2024/04/15 10:31:06;;;;;;;;;;;;;;;17.69;76.90;97209.81;5442310;26;19982;-51
2024/04/15 10:33:31;;;;;;;;;;;;;;;16.68;82.09;97210.03;5449684;26;20041;-50
2024/04/15 10:35:56;;;;;;;;;;;;;;;16.87;85.46;97204.69;5439307;26;19936;-51
2024/04/15 10:38:26;;;;;;;;;;;;;;;16.92;84.29;97202.47;5441544;26;19964;-51
2024/04/15 10:40:52;;;;;;;;;;;;;;;16.56;84.90;97206.72;5450480;26;20303;-52
2024/04/15 10:43:21;;;;;;;;;;;;;;;16.63;86.30;97202.56;5434493;26;19959;-52
2024/04/15 10:45:46;;;;;;;;;;;;;;;16.81;87.44;97197.38;5433043;26;20008;-50
2024/04/15 10:48:12;;;;;;;;;;;;;;;16.25;89.23;97191.28;5445164;26;19963;-51
2024/04/15 10:50:37;;;;;;;;;;;;;;;16.70;87.14;97189.69;5441142;26;19929;-50
2024/04/15 10:53:03;;;;;;;;;;;;;;;16.75;88.82;97200.59;5439947;26;19996;-50
2024/04/15 10:55:28;;;;;;;;;;;;;;;17.23;87.67;97187.09;5436597;26;19964;-50
2024/04/15 10:57:54;;;;;;;;;;;;;;;17.31;86.13;97183.75;5431878;26;20227;-52
2024/04/15 11:00:20;;;;;;;;;;;;;;;17.29;84.58;97178.63;5451229;26;20278;-52
2024/04/15 11:02:48;;;;;;;;;;;;;;;17.12;84.81;97174.13;5431968;26;19968;-51
2024/04/15 11:05:14;;;;;;;;;;;;;;;17.51;84.46;97175.59;5434335;26;20060;-51
2024/04/15 11:07:42;;;;;;;;;;;;;;;18.40;78.64;97159.63;5442017;26;20368;-52
2024/04/15 11:10:09;;;;;;;;;;;;;;;18.28;76.74;97150.28;5437242;26;19928;-51
2024/04/15 11:12:34;;;;;;;;;;;;;;;18.60;75.71;97145.25;5441264;26;19928;-51
2024/04/15 11:14:59;;;;;;;;;;;;;;;18.71;75.84;97137.03;5447758;26;19997;-51
2024/04/15 11:17:25;;;;;;;;;;;;;;;18.60;76.80;97132.06;5443427;26;20049;-52
2024/04/15 11:20:00;;;;;;;;;;;;;;;18.24;77.44;97113.84;5439413;26;19929;-52
2024/04/15 11:22:25;;;;;;;;;;;;;;;18.09;74.94;97108.31;5444364;26;20276;-52
2024/04/15 11:24:51;;;;;;;;;;;;;;;18.17;75.68;97110.16;5442432;26;19944;-52
2024/04/15 11:27:17;;;;;;;;;;;;;;;17.96;75.28;97097.34;5437098;26;19952;-53
2024/04/15 11:29:42;;;;;;;;;;;;;;;17.93;73.69;97096.84;5445643;26;20058;-52
2024/04/15 11:32:07;;;;;;;;;;;;;;;18.00;74.36;97093.44;5434561;26;19970;-51
2024/04/15 11:34:33;;;;;;;;;;;;;;;17.94;74.72;97087.97;5437173;26;19970;-53
2024/04/15 11:36:58;;;;;;;;;;;;;;;18.07;73.81;97078.69;5440086;26;19994;-51
2024/04/15 11:39:24;;;;;;;;;;;;;;;17.83;74.46;97085.56;5440609;26;19968;-52
2024/04/15 11:41:49;;;;;;;;;;;;;;;17.74;76.05;97082.06;5442300;26;19967;-50
2024/04/15 11:44:14;;;;;;;;;;;;;;;17.73;76.98;97076.94;5438371;26;19929;-52
2024/04/15 11:46:40;;;;;;;;;;;;;;;17.90;78.55;97082.16;5442129;26;19936;-53
2024/04/15 11:49:05;;;;;;;;;;;;;;;17.99;79.22;97075.16;5445144;26;20444;-52
2024/04/15 11:51:31;;;;;;;;;;;;;;;17.81;81.08;97069.94;5471922;26;19944;-52
2024/04/15 11:53:56;;;;;;;;;;;;;;;17.93;81.15;97060.78;5442808;26;19960;-53
2024/04/15 11:56:21;;;;;;;;;;;;;;;18.05;82.27;97054.28;5440761;26;20471;-51
2024/04/15 11:58:47;;;;;;;;;;;;;;;18.25;81.13;97058.34;5445974;26;20267;-51
2024/04/15 12:01:12;;;;;;;;;;;;;;;18.59;80.05;97046.03;5436165;26;20016;-51
2024/04/15 12:03:38;;;;;;;;;;;;;;;18.87;76.93;97049.28;5445995;26;20007;-52
2024/04/15 12:06:05;;;;;;;;;;;;;;;18.72;77.10;97027.97;5445167;26;19964;-51
2024/04/15 12:08:31;;;;;;;;;;;;;;;19.84;74.38;97020.19;5437427;26;19972;-52
2024/04/15 12:10:56;;;;;;;;;;;;;;;20.07;70.33;97012.44;5439069;26;19932;-51
2024/04/15 12:13:22;;;;;;;;;;;;;;;20.81;69.24;97003.06;5442655;26;19974;-51
2024/04/15 12:15:47;;;;;;;;;;;;;;;20.53;68.24;97008.97;5443326;26;19940;-51
2024/04/15 12:18:12;;;;;;;;;;;;;;;20.45;66.91;97009.81;5441514;26;19935;-51
2024/04/15 12:20:38;;;;;;;;;;;;;;;19.67;68.75;96996.63;5470833;26;19964;-51
2024/04/15 12:23:03;;;;;;;;;;;;;;;19.84;68.85;96985.84;5428360;26;19995;-51
2024/04/15 12:25:28;;;;;;;;;;;;;;;20.55;67.89;96985.81;5442073;26;19994;-49
2024/04/15 12:27:53;;;;;;;;;;;;;;;22.24;62.82;96971.09;5435126;26;20263;-52
2024/04/15 12:30:19;;;;;;;;;;;;;;;22.34;59.07;96968.16;5440271;26;19979;-50
2024/04/15 12:32:44;;;;;;;;;;;;;;;22.75;58.19;96962.19;5445435;26;19936;-50
2024/04/15 12:35:10;;;;;;;;;;;;;;;23.54;56.90;96948.72;5444006;26;20357;-53
2024/04/15 12:37:35;;;;;;;;;;;;;;;23.21;55.86;96942.31;5445275;26;19963;-54